Seastreak Highlands — WDE4031 — position and weather

sailwx.info

Track history (hours):
 
Tides and Currents Weather Stations Pressure Air Temp Water Temp Dewpoint Dewpoint Depression Visibility Wind Speed Wind Dir Waves Ship Positions

Seastreak Highlands

Owner: Seastreak llc, atlantic highlands, NJ. More information available from US FCC via Universal Licensing System and Coast Guard Vessel Documentation Center.

Last reported at 2015-Jul-04 04:34 UTC. Time now 2015-Jul-04 08:29 UTC.
Position N 40°27' W 074°02'.

Length 44 m; draft 2 m.

Type: High speed craft. MMSI: 367347670.

Date/timePositionNaut miles runAvg speedWind from/ knotsBaromVisibWave heightAir tempDewpointWater temp
2015-Jul-04 04:34N 40°27' W 074°02'1212.5
2015-Jul-04 03:33N 40°40' W 074°02'1515.4
2015-Jul-04 02:33N 40°25' W 073°60'1717.4
2015-Jul-04 01:34N 40°42' W 074°00'2 1.5
2015-Jul-04 00:34N 40°41' W 074°01'7 6.5
2015-Jul-03 23:25N 40°33' W 074°02'1011.7
2015-Jul-03 22:34N 40°43' W 073°58'1817.3
2015-Jul-03 21:29N 40°25' W 073°60'2 1.9
2015-Jul-03 20:33N 40°25' W 074°02'2 0.1
2015-Jul-03 00:33N 40°25' W 073°60'0 0.1
2015-Jul-02 23:33N 40°25' W 073°60'2019.8
2015-Jul-02 22:34N 40°44' W 073°58'1919.2
2015-Jul-02 21:33N 40°25' W 074°00'1717.4
2015-Jul-02 20:34N 40°42' W 073°60'3 2.6
2015-Jul-02 19:33N 40°45' W 073°58'0 0.0
2015-Jul-02 18:33N 40°45' W 073°58'0 0.0
2015-Jul-02 17:33N 40°45' W 073°58'1110.7
2015-Jul-02 16:33N 40°34' W 074°02'9 9.2
2015-Jul-02 15:33N 40°25' W 074°02'0 0.0
2015-Jul-02 14:27N 40°25' W 074°02'0 0.0
2015-Jul-02 13:33N 40°25' W 074°02'0 0.0
2015-Jul-02 12:33N 40°25' W 074°02'0 0.0
2015-Jul-02 11:32N 40°25' W 074°02'0 0.0
2015-Jul-02 10:33N 40°25' W 074°02'0 0.0
2015-Jul-02 09:33N 40°25' W 074°02'0 0.0
2015-Jul-02 08:33N 40°25' W 074°02'0 0.0
2015-Jul-02 07:33N 40°25' W 074°02'0 0.0
2015-Jul-02 06:33N 40°25' W 074°02'0 0.0
2015-Jul-02 04:30N 40°25' W 074°02'0 0.0
2015-Jul-02 03:17N 40°25' W 074°02'0 0.0
2015-Jul-02 02:21N 40°25' W 074°02'0 0.0
2015-Jul-02 01:22N 40°25' W 074°02'0 0.0
2015-Jul-02 00:29N 40°25' W 074°02'0 0.0
2015-Jul-01 23:31N 40°25' W 074°02'0 0.0
2015-Jul-01 21:25N 40°25' W 074°02'0 0.0
2015-Jul-01 20:29N 40°25' W 074°02'0 0.0
2015-Jul-01 19:31N 40°25' W 074°02'0 0.0
2015-Jul-01 18:24N 40°25' W 074°02'0 0.0
2015-Jul-01 17:33N 40°25' W 074°02'0 0.0
2015-Jul-01 16:10N 40°25' W 074°02'0 0.0
2015-Jul-01 15:32N 40°25' W 074°02'0 0.0
2015-Jul-01 14:33N 40°25' W 074°02'0 0.0
2015-Jul-01 13:33N 40°25' W 074°02'0 0.0
2015-Jul-01 12:33N 40°25' W 074°02'0 0.0
2015-Jul-01 08:16N 40°25' W 074°02'0 0.0
2015-Jul-01 07:24N 40°25' W 074°02'0 0.0
2015-Jul-01 06:33N 40°25' W 074°02'0 0.0
2015-Jul-01 05:14N 40°25' W 074°02'0 0.0
2015-Jul-01 04:33N 40°25' W 074°02'0 0.0
2015-Jul-01 03:33N 40°25' W 074°02'0 0.0
2015-Jul-01 02:33N 40°25' W 074°02'0 0.0
2015-Jul-01 01:33N 40°25' W 074°02'0 0.0
2015-Jul-01 00:33N 40°25' W 074°02'0 0.0
2015-Jun-30 23:32N 40°25' W 074°02'0 0.0
2015-Jun-30 22:33N 40°25' W 074°02'0 0.0
2015-Jun-30 21:33N 40°25' W 074°02'0 0.0
2015-Jun-30 20:33N 40°25' W 074°02'0 0.0
2015-Jun-30 19:33N 40°25' W 074°02'2 1.6
2015-Jun-30 18:33N 40°25' W 074°00'4 1.9
2015-Jun-30 16:28N 40°28' W 074°02'3 0.2
2015-Jun-29 23:24N 40°25' W 074°02'  
2015-Jun-26 19:09N 40°25' W 074°02'0 0.0
2015-Jun-26 18:33N 40°25' W 074°02'0 0.0
2015-Jun-26 17:27N 40°25' W 074°02'0 0.0
2015-Jun-26 16:31N 40°25' W 074°02'0 0.0
2015-Jun-26 14:29N 40°25' W 074°02'0 0.0
2015-Jun-26 13:33N 40°25' W 074°02'0 0.0
2015-Jun-24 23:21N 40°25' W 074°02'0 0.0
2015-Jun-24 15:29N 40°25' W 074°02'0 0.0
2015-Jun-24 14:29N 40°25' W 074°02'  
Track history (hours):
 
Tides and Currents Weather Stations Pressure Air Temp Water Temp Dewpoint Dewpoint Depression Visibility Wind Speed Wind Dir Waves Ship Positions

Seastreak Highlands

Owner: Seastreak llc, atlantic highlands, NJ. More information available from US FCC via Universal Licensing System and Coast Guard Vessel Documentation Center.

Last reported at 2015-Jul-04 04:34 UTC. Time now 2015-Jul-04 08:29 UTC.
Position N 40°27' W 074°02'.

Length 44 m; draft 2 m.

Type: High speed craft. MMSI: 367347670.

Date/timePositionNaut miles runAvg speedWind from/ knotsBaromVisibWave heightAir tempDewpointWater temp
2015-Jul-04 04:34N 40°27' W 074°02'1212.5
2015-Jul-04 03:33N 40°40' W 074°02'1515.4
2015-Jul-04 02:33N 40°25' W 073°60'1717.4
2015-Jul-04 01:34N 40°42' W 074°00'2 1.5
2015-Jul-04 00:34N 40°41' W 074°01'7 6.5
2015-Jul-03 23:25N 40°33' W 074°02'1011.7
2015-Jul-03 22:34N 40°43' W 073°58'1817.3
2015-Jul-03 21:29N 40°25' W 073°60'2 1.9
2015-Jul-03 20:33N 40°25' W 074°02'2 0.1
2015-Jul-03 00:33N 40°25' W 073°60'0 0.1
2015-Jul-02 23:33N 40°25' W 073°60'2019.8
2015-Jul-02 22:34N 40°44' W 073°58'1919.2
2015-Jul-02 21:33N 40°25' W 074°00'1717.4
2015-Jul-02 20:34N 40°42' W 073°60'3 2.6
2015-Jul-02 19:33N 40°45' W 073°58'0 0.0
2015-Jul-02 18:33N 40°45' W 073°58'0 0.0
2015-Jul-02 17:33N 40°45' W 073°58'1110.7
2015-Jul-02 16:33N 40°34' W 074°02'9 9.2
2015-Jul-02 15:33N 40°25' W 074°02'0 0.0
2015-Jul-02 14:27N 40°25' W 074°02'0 0.0
2015-Jul-02 13:33N 40°25' W 074°02'0 0.0
2015-Jul-02 12:33N 40°25' W 074°02'0 0.0
2015-Jul-02 11:32N 40°25' W 074°02'0 0.0
2015-Jul-02 10:33N 40°25' W 074°02'0 0.0
2015-Jul-02 09:33N 40°25' W 074°02'0 0.0
2015-Jul-02 08:33N 40°25' W 074°02'0 0.0
2015-Jul-02 07:33N 40°25' W 074°02'0 0.0
2015-Jul-02 06:33N 40°25' W 074°02'0 0.0
2015-Jul-02 04:30N 40°25' W 074°02'0 0.0
2015-Jul-02 03:17N 40°25' W 074°02'0 0.0
2015-Jul-02 02:21N 40°25' W 074°02'0 0.0
2015-Jul-02 01:22N 40°25' W 074°02'0 0.0
2015-Jul-02 00:29N 40°25' W 074°02'0 0.0
2015-Jul-01 23:31N 40°25' W 074°02'0 0.0
2015-Jul-01 21:25N 40°25' W 074°02'0 0.0
2015-Jul-01 20:29N 40°25' W 074°02'0 0.0
2015-Jul-01 19:31N 40°25' W 074°02'0 0.0
2015-Jul-01 18:24N 40°25' W 074°02'0 0.0
2015-Jul-01 17:33N 40°25' W 074°02'0 0.0
2015-Jul-01 16:10N 40°25' W 074°02'0 0.0
2015-Jul-01 15:32N 40°25' W 074°02'0 0.0
2015-Jul-01 14:33N 40°25' W 074°02'0 0.0
2015-Jul-01 13:33N 40°25' W 074°02'0 0.0
2015-Jul-01 12:33N 40°25' W 074°02'0 0.0
2015-Jul-01 08:16N 40°25' W 074°02'0 0.0
2015-Jul-01 07:24N 40°25' W 074°02'0 0.0
2015-Jul-01 06:33N 40°25' W 074°02'0 0.0
2015-Jul-01 05:14N 40°25' W 074°02'0 0.0
2015-Jul-01 04:33N 40°25' W 074°02'0 0.0
2015-Jul-01 03:33N 40°25' W 074°02'0 0.0
2015-Jul-01 02:33N 40°25' W 074°02'0 0.0
2015-Jul-01 01:33N 40°25' W 074°02'0 0.0
2015-Jul-01 00:33N 40°25' W 074°02'0 0.0
2015-Jun-30 23:32N 40°25' W 074°02'0 0.0
2015-Jun-30 22:33N 40°25' W 074°02'0 0.0
2015-Jun-30 21:33N 40°25' W 074°02'0 0.0
2015-Jun-30 20:33N 40°25' W 074°02'0 0.0
2015-Jun-30 19:33N 40°25' W 074°02'2 1.6
2015-Jun-30 18:33N 40°25' W 074°00'4 1.9
2015-Jun-30 16:28N 40°28' W 074°02'3 0.2
2015-Jun-29 23:24N 40°25' W 074°02'  
2015-Jun-26 19:09N 40°25' W 074°02'0 0.0
2015-Jun-26 18:33N 40°25' W 074°02'0 0.0
2015-Jun-26 17:27N 40°25' W 074°02'0 0.0
2015-Jun-26 16:31N 40°25' W 074°02'0 0.0
2015-Jun-26 14:29N 40°25' W 074°02'0 0.0
2015-Jun-26 13:33N 40°25' W 074°02'0 0.0
2015-Jun-24 23:21N 40°25' W 074°02'0 0.0
2015-Jun-24 15:29N 40°25' W 074°02'0 0.0
2015-Jun-24 14:29N 40°25' W 074°02'  

Dump ship's entire track history